createdAt,value
2018-07-26T00:00:03.727Z,21.95
2018-07-26T00:05:03.748Z,21.74
2018-07-26T00:10:03.734Z,21.47
2018-07-26T00:15:03.734Z,21.29
2018-07-26T00:20:03.751Z,21.08
2018-07-26T00:25:03.744Z,20.86
2018-07-26T00:30:03.741Z,20.71
2018-07-26T00:35:03.751Z,20.61
2018-07-26T00:40:03.748Z,20.56
2018-07-26T00:45:03.748Z,20.54
2018-07-26T00:50:03.767Z,20.58
2018-07-26T00:55:03.755Z,20.54
2018-07-26T01:00:03.758Z,20.43
2018-07-26T01:05:03.777Z,20.29
2018-07-26T01:10:03.761Z,20.14
2018-07-26T01:15:03.768Z,19.89
2018-07-26T01:20:03.781Z,19.73
2018-07-26T01:25:03.777Z,19.57
2018-07-26T01:30:03.776Z,19.4
2018-07-26T01:35:03.795Z,19.3
2018-07-26T01:40:03.782Z,19.27
2018-07-26T01:45:03.782Z,19.31
2018-07-26T01:50:03.799Z,19.41
2018-07-26T01:55:03.795Z,19.46
2018-07-26T02:00:03.791Z,19.46
2018-07-26T02:05:03.810Z,19.47
2018-07-26T02:10:03.801Z,19.44
2018-07-26T02:15:03.813Z,19.41
2018-07-26T02:20:03.820Z,19.31
2018-07-26T02:25:03.810Z,19.27
2018-07-26T02:30:03.824Z,19.14
2018-07-26T02:35:03.823Z,18.97
2018-07-26T02:40:03.822Z,18.8
2018-07-26T02:45:03.820Z,18.63
2018-07-26T02:50:03.837Z,18.47
2018-07-26T02:55:03.821Z,18.28
2018-07-26T03:00:03.826Z,18.2
2018-07-26T03:05:03.847Z,18.08
2018-07-26T03:10:03.831Z,18.02
2018-07-26T03:15:03.835Z,17.96
2018-07-26T03:20:03.834Z,17.89
2018-07-26T03:25:03.847Z,17.83
2018-07-26T03:30:03.840Z,17.82
2018-07-26T03:35:03.839Z,17.83
2018-07-26T03:40:03.852Z,17.78
2018-07-26T03:45:03.847Z,17.75
2018-07-26T03:50:03.850Z,17.79
2018-07-26T03:55:03.853Z,17.87
2018-07-26T04:00:03.859Z,17.98
2018-07-26T04:05:03.860Z,18.12
2018-07-26T04:10:03.858Z,18.17
2018-07-26T04:15:03.872Z,18.15
2018-07-26T04:20:03.919Z,18.23
2018-07-26T04:25:03.880Z,18.4
2018-07-26T04:30:03.880Z,18.64
2018-07-26T04:35:03.875Z,18.93
2018-07-26T04:40:03.881Z,19.1
2018-07-26T04:45:03.888Z,19.27
2018-07-26T04:50:03.888Z,19.51
2018-07-26T04:55:03.886Z,19.68
2018-07-26T05:00:03.901Z,19.87
2018-07-26T05:05:03.892Z,20.06
2018-07-26T05:10:03.897Z,20.28
2018-07-26T05:15:03.917Z,20.65
2018-07-26T05:20:03.899Z,21.48
2018-07-26T05:25:03.901Z,21.8
2018-07-26T05:30:03.916Z,21.9
2018-07-26T05:35:03.909Z,21.93
2018-07-26T05:40:03.912Z,21.9
2018-07-26T05:45:03.933Z,21.92
2018-07-26T05:50:03.914Z,21.96
2018-07-26T05:55:03.918Z,22.11
2018-07-26T06:00:03.951Z,22.47
2018-07-26T06:05:03.926Z,22.7
2018-07-26T06:10:03.925Z,22.87
2018-07-26T06:15:03.934Z,23.03
2018-07-26T06:20:03.987Z,23.34
2018-07-26T06:25:03.935Z,23.52
2018-07-26T06:30:03.943Z,23.55
2018-07-26T06:35:03.950Z,23.87
2018-07-26T06:40:03.952Z,24.15
2018-07-26T06:45:03.947Z,24.29
2018-07-26T06:50:03.955Z,24.47
2018-07-26T06:55:03.951Z,24.86
2018-07-26T07:00:03.957Z,25.13
2018-07-26T07:05:03.968Z,25.3
2018-07-26T07:10:04.039Z,25.78
2018-07-26T07:15:03.965Z,26.94
2018-07-26T07:20:04.000Z,28.1
2018-07-26T07:25:03.970Z,28.95
2018-07-26T07:30:03.971Z,29.5
2018-07-26T07:35:03.979Z,30.17
2018-07-26T07:40:03.972Z,30.75
2018-07-26T07:45:03.987Z,31.14
2018-07-26T07:50:03.983Z,31.73
2018-07-26T07:55:03.991Z,31.86
2018-07-26T08:00:03.986Z,31.98
2018-07-26T08:05:03.992Z,32.18
2018-07-26T08:10:03.999Z,32.53
2018-07-26T08:15:04.000Z,32.49
2018-07-26T08:20:04.001Z,32.89
2018-07-26T08:25:04.006Z,33.38
2018-07-26T08:30:04.005Z,33.93
2018-07-26T08:35:04.012Z,34.22
2018-07-26T08:40:04.013Z,34.07
2018-07-26T08:45:04.011Z,33.46
2018-07-26T08:50:04.008Z,32.53
2018-07-26T08:55:04.019Z,32.17
2018-07-26T09:00:04.014Z,32.15
2018-07-26T09:05:04.025Z,32
2018-07-26T09:10:04.027Z,32.12
2018-07-26T09:15:04.032Z,32.61
2018-07-26T09:20:04.070Z,33.36
2018-07-26T09:25:04.051Z,34.14
2018-07-26T09:30:04.035Z,34.46
2018-07-26T09:35:04.036Z,34.62
2018-07-26T09:40:04.046Z,35.12
2018-07-26T09:45:04.043Z,35.78
2018-07-26T09:50:04.046Z,36.06
2018-07-26T09:55:04.091Z,36.01
2018-07-26T10:00:04.047Z,35.98
2018-07-26T10:05:04.055Z,35.88
2018-07-26T10:10:04.063Z,36.06
2018-07-26T10:15:04.184Z,36.18
2018-07-26T10:20:04.075Z,36.36
2018-07-26T10:25:04.083Z,36.21
2018-07-26T10:30:04.065Z,36.24
2018-07-26T10:35:04.068Z,35.82
2018-07-26T10:40:04.080Z,34.8
2018-07-26T10:45:04.073Z,34.19
2018-07-26T10:50:04.098Z,33.52
2018-07-26T10:55:04.083Z,33.49
2018-07-26T11:00:04.084Z,33.75
2018-07-26T11:05:04.085Z,34.09
2018-07-26T11:10:04.108Z,34.06
2018-07-26T11:15:04.157Z,34.47
2018-07-26T11:20:04.093Z,35.21
2018-07-26T11:25:04.101Z,35.44
2018-07-26T11:30:04.203Z,36.24
2018-07-26T11:35:04.098Z,37.77
2018-07-26T11:40:04.114Z,37.88
2018-07-26T11:45:04.104Z,37.94
2018-07-26T11:50:04.154Z,39.71
2018-07-26T11:55:04.117Z,40.59
2018-07-26T12:00:04.119Z,41.19
2018-07-26T12:05:04.119Z,41.41
2018-07-26T12:10:04.129Z,43.08
2018-07-26T12:15:04.124Z,42.5
2018-07-26T12:20:04.128Z,42.34
2018-07-26T12:25:04.133Z,42.25
2018-07-26T12:30:04.133Z,43.4
2018-07-26T12:35:04.137Z,43.26
2018-07-26T12:40:04.150Z,43.16
2018-07-26T12:45:04.140Z,44.89
2018-07-26T12:50:04.147Z,44.92
2018-07-26T12:55:04.161Z,44.03
2018-07-26T13:00:04.147Z,43.61
2018-07-26T13:05:04.154Z,43.48
2018-07-26T13:10:04.153Z,43.35
2018-07-26T13:15:04.162Z,43.74
2018-07-26T13:20:04.159Z,43.72
2018-07-26T13:25:04.161Z,43.76
2018-07-26T13:30:04.164Z,43.07
2018-07-26T13:35:04.174Z,42.25
2018-07-26T13:40:04.309Z,41.06
2018-07-26T13:45:04.168Z,39.25
2018-07-26T13:50:04.177Z,38.54
2018-07-26T13:55:04.180Z,37.86
2018-07-26T14:00:04.174Z,37.19
2018-07-26T14:05:04.199Z,36.68
2018-07-26T14:10:04.188Z,36.54
2018-07-26T14:15:04.190Z,36.28
2018-07-26T14:20:04.188Z,36.17
2018-07-26T14:25:04.193Z,37.23
2018-07-26T14:30:04.191Z,38.31
2018-07-26T14:35:04.194Z,39.52
2018-07-26T14:40:04.205Z,40.43
2018-07-26T14:45:04.202Z,41.99
2018-07-26T14:50:04.200Z,42.57
2018-07-26T14:55:04.216Z,42.61
2018-07-26T15:00:04.210Z,42.66
2018-07-26T15:05:04.212Z,42.78
2018-07-26T15:10:04.223Z,43.47
2018-07-26T15:15:04.213Z,42.31
2018-07-26T15:20:04.222Z,41.83
2018-07-26T15:25:04.235Z,42.14
2018-07-26T15:30:04.228Z,42.02
2018-07-26T15:35:04.236Z,42.2
2018-07-26T15:40:04.238Z,43.19
2018-07-26T15:45:04.236Z,43.43
2018-07-26T15:50:04.236Z,43.8
2018-07-26T15:55:04.244Z,43.55
2018-07-26T16:00:04.242Z,43.43
2018-07-26T16:05:04.296Z,43.31
2018-07-26T16:10:04.247Z,42.75
2018-07-26T16:15:04.263Z,42.61
2018-07-26T16:20:04.249Z,42.07
2018-07-26T16:25:04.261Z,42.64
2018-07-26T16:30:04.264Z,41.41
2018-07-26T16:35:04.269Z,38.94
2018-07-26T16:40:04.393Z,36.34
2018-07-26T16:45:04.285Z,35.28
2018-07-26T16:50:04.273Z,34.62
2018-07-26T16:55:04.275Z,34.07
2018-07-26T17:00:04.283Z,33.77
2018-07-26T17:05:04.287Z,33.44
2018-07-26T17:10:04.282Z,33.15
2018-07-26T17:15:04.297Z,32.89
2018-07-26T17:20:04.287Z,32.64
2018-07-26T17:25:04.294Z,32.5
2018-07-26T17:30:04.296Z,32.23
2018-07-26T17:35:04.299Z,32.04
2018-07-26T17:40:04.377Z,31.94
2018-07-26T17:45:04.346Z,31.85
2018-07-26T17:50:04.299Z,31.74
2018-07-26T17:55:04.302Z,31.63
2018-07-26T18:00:04.321Z,31.52
2018-07-26T18:05:04.309Z,31.36
2018-07-26T18:10:04.312Z,31.18
2018-07-26T18:15:04.322Z,30.96
2018-07-26T18:20:04.317Z,30.68
2018-07-26T18:25:04.316Z,30.42
2018-07-26T18:30:04.325Z,30.16
2018-07-26T18:35:04.328Z,29.91
2018-07-26T18:40:04.318Z,29.62
2018-07-26T18:45:04.335Z,29.34
2018-07-26T18:50:04.337Z,29.12
2018-07-26T18:55:04.332Z,28.88
2018-07-26T19:00:04.360Z,28.62
2018-07-26T19:05:04.343Z,28.38
2018-07-26T19:10:04.342Z,28.17
2018-07-26T19:15:04.352Z,28
2018-07-26T19:20:04.350Z,27.8
2018-07-26T19:25:04.364Z,27.6
2018-07-26T19:30:04.363Z,27.43
2018-07-26T19:35:04.355Z,27.43
2018-07-26T19:40:04.363Z,27.6
2018-07-26T19:45:04.377Z,27.7
2018-07-26T19:50:04.367Z,27.81
2018-07-26T19:55:04.372Z,27.78
2018-07-26T20:00:04.370Z,27.67
2018-07-26T20:05:04.380Z,27.54
2018-07-26T20:10:04.393Z,27.45
2018-07-26T20:15:05.366Z,27.36
2018-07-26T20:20:04.383Z,27.21
2018-07-26T20:25:04.381Z,26.96
2018-07-26T20:30:04.397Z,26.64
2018-07-26T20:35:04.397Z,26.33
2018-07-26T20:40:04.392Z,25.99
2018-07-26T20:45:03.398Z,25.67
2018-07-26T20:50:03.407Z,25.37
2018-07-26T20:55:03.401Z,25.18
2018-07-26T21:00:03.403Z,25.04
2018-07-26T21:05:03.413Z,24.85
2018-07-26T21:10:03.412Z,24.72
2018-07-26T21:15:03.414Z,24.58
2018-07-26T21:20:03.422Z,24.48
2018-07-26T21:25:03.413Z,24.39
2018-07-26T21:30:03.419Z,24.34
2018-07-26T21:35:03.443Z,24.28
2018-07-26T21:40:03.422Z,24.28
2018-07-26T21:45:03.427Z,24.36
2018-07-26T21:50:03.448Z,24.49
2018-07-26T21:55:03.432Z,24.62
2018-07-26T22:00:03.433Z,24.7
2018-07-26T22:05:03.445Z,24.77
2018-07-26T22:10:03.463Z,24.77
2018-07-26T22:15:03.506Z,24.7
2018-07-26T22:20:03.448Z,24.62
2018-07-26T22:25:03.543Z,24.54
2018-07-26T22:30:03.450Z,24.53
2018-07-26T22:35:03.457Z,24.48
2018-07-26T22:40:03.476Z,24.45
2018-07-26T22:45:03.458Z,24.34
2018-07-26T22:50:03.460Z,24.35
2018-07-26T22:55:03.488Z,24.28
2018-07-26T23:00:03.468Z,24.18
2018-07-26T23:05:03.470Z,24.12
2018-07-26T23:10:03.487Z,24.09
2018-07-26T23:15:03.472Z,24.02
2018-07-26T23:20:03.480Z,23.91
2018-07-26T23:25:03.488Z,23.79
2018-07-26T23:30:03.488Z,23.68
2018-07-26T23:35:03.491Z,23.5
2018-07-26T23:40:03.493Z,23.29
2018-07-26T23:45:03.489Z,23.06
2018-07-26T23:50:03.494Z,22.77
2018-07-26T23:55:03.503Z,22.52
